Time;durP1;ratioP1;P1;durP2;ratioP2;P2;SDS_P1;SDS_P2;PMS_P1;PMS_P2;Temp;Humidity;BMP_temperature;BMP_pressure;BME280_temperature;BME280_humidity;BME280_pressure;Samples;Min_cycle;Max_cycle;Signal;HPM_P1;HPM_P2
2023/09/02 00:02:51;;;;;;;13.57;7.90;;;;;;;;;;6245176;28;20527;-58
2023/09/02 00:05:51;;;;;;;10.95;6.80;;;;;;;;;;6250682;28;20065;-58
2023/09/02 00:08:52;;;;;;;13.27;7.90;;;;;;;;;;6245823;28;20459;-58
2023/09/02 00:11:52;;;;;;;11.13;7.77;;;;;;;;;;6245863;28;20045;-59
2023/09/02 00:14:54;;;;;;;13.53;7.80;;;;;;;;;;6246598;28;20060;-58
2023/09/02 00:17:54;;;;;;;11.03;7.40;;;;;;;;;;6245385;28;20522;-59
2023/09/02 00:20:55;;;;;;;12.73;7.70;;;;;;;;;;6245240;28;20056;-59
2023/09/02 00:24:03;;;;;;;15.27;8.07;;;;;;;;;;6243430;28;20041;-57
2023/09/02 00:27:04;;;;;;;13.30;8.07;;;;;;;;;;6245062;28;20037;-56
2023/09/02 00:30:05;;;;;;;11.95;7.32;;;;;;;;;;6243318;28;20095;-59
2023/09/02 00:33:06;;;;;;;13.25;7.88;;;;;;;;;;6248719;28;20104;-59
2023/09/02 00:36:06;;;;;;;13.57;8.80;;;;;;;;;;6249528;28;20063;-59
2023/09/02 00:39:07;;;;;;;12.67;8.30;;;;;;;;;;6248777;28;20083;-58
2023/09/02 00:42:10;;;;;;;11.27;7.77;;;;;;;;;;6251123;28;20045;-58
2023/09/02 00:45:11;;;;;;;13.43;8.05;;;;;;;;;;6251585;28;20045;-59
2023/09/02 00:48:12;;;;;;;11.27;8.38;;;;;;;;;;6249379;28;20435;-58
2023/09/02 00:51:13;;;;;;;12.07;8.23;;;;;;;;;;6250127;28;20044;-57
2023/09/02 00:54:13;;;;;;;13.47;7.83;;;;;;;;;;6255261;28;20063;-57
2023/09/02 00:57:14;;;;;;;12.70;7.80;;;;;;;;;;6249605;28;20071;-58
2023/09/02 01:00:16;;;;;;;13.30;7.88;;;;;;;;;;6254474;28;20492;-58
2023/09/02 01:03:17;;;;;;;13.68;7.90;;;;;;;;;;6256925;28;20043;-59
2023/09/02 01:06:19;;;;;;;14.77;8.60;;;;;;;;;;6252914;28;20049;-58
2023/09/02 01:09:20;;;;;;;11.80;7.80;;;;;;;;;;6253806;28;20198;-57
2023/09/02 01:12:21;;;;;;;11.65;7.93;;;;;;;;;;6255258;28;20499;-58
2023/09/02 01:15:21;;;;;;;15.35;8.85;;;;;;;;;;6254181;28;20128;-58
2023/09/02 01:18:23;;;;;;;16.92;8.38;;;;;;;;;;6251632;28;20411;-55
2023/09/02 01:21:59;;;;;;;15.75;8.25;;;;;;;;;;6254283;28;20052;-57
2023/09/02 01:25:07;;;;;;;15.20;8.52;;;;;;;;;;6251125;28;20052;-57
2023/09/02 01:28:16;;;;;;;14.43;8.73;;;;;;;;;;6252059;28;20033;-56
2023/09/02 01:31:17;;;;;;;15.15;8.77;;;;;;;;;;6252763;28;20756;-57
2023/09/02 01:34:19;;;;;;;15.65;9.10;;;;;;;;;;6260360;28;20077;-56
2023/09/02 01:37:23;;;;;;;16.98;9.13;;;;;;;;;;6250627;28;20083;-58
2023/09/02 01:40:25;;;;;;;13.43;8.43;;;;;;;;;;6255542;28;20044;-57
2023/09/02 01:43:29;;;;;;;13.68;9.15;;;;;;;;;;6253678;28;20404;-58
2023/09/02 01:46:30;;;;;;;12.68;8.95;;;;;;;;;;6248748;28;20049;-57
2023/09/02 01:49:30;;;;;;;15.55;8.77;;;;;;;;;;6250065;28;20395;-58
2023/09/02 01:52:32;;;;;;;15.40;9.23;;;;;;;;;;6247438;28;20056;-58
2023/09/02 01:55:33;;;;;;;14.10;8.45;;;;;;;;;;6250710;28;20084;-58
2023/09/02 01:58:34;;;;;;;13.23;8.77;;;;;;;;;;6248789;28;20075;-58
2023/09/02 02:01:34;;;;;;;14.43;8.38;;;;;;;;;;6247815;28;20033;-57
2023/09/02 02:04:39;;;;;;;13.80;8.80;;;;;;;;;;6250160;28;20177;-58
2023/09/02 02:07:42;;;;;;;14.68;8.85;;;;;;;;;;6247391;28;20033;-58
2023/09/02 02:10:45;;;;;;;15.05;9.18;;;;;;;;;;6247376;28;20492;-57
2023/09/02 02:13:49;;;;;;;14.00;9.52;;;;;;;;;;6245963;28;20048;-58
2023/09/02 02:16:49;;;;;;;13.10;8.80;;;;;;;;;;6248599;28;20047;-58
2023/09/02 02:19:50;;;;;;;13.45;9.27;;;;;;;;;;6246756;28;20049;-58
2023/09/02 02:22:51;;;;;;;17.40;10.33;;;;;;;;;;6247918;28;20045;-58
2023/09/02 02:25:52;;;;;;;13.43;9.27;;;;;;;;;;6247151;28;20440;-58
2023/09/02 02:28:52;;;;;;;12.27;8.50;;;;;;;;;;6247862;28;20371;-58
2023/09/02 02:31:53;;;;;;;13.47;8.90;;;;;;;;;;6251127;28;20060;-55
2023/09/02 02:34:54;;;;;;;12.20;8.13;;;;;;;;;;6254305;28;20042;-58
2023/09/02 02:37:55;;;;;;;13.88;8.98;;;;;;;;;;6248812;28;20042;-57
2023/09/02 02:40:56;;;;;;;12.68;8.68;;;;;;;;;;6249381;28;20049;-58
2023/09/02 02:43:59;;;;;;;12.05;8.75;;;;;;;;;;6245252;28;20053;-58
2023/09/02 02:46:59;;;;;;;12.20;8.63;;;;;;;;;;6251077;28;20041;-56
2023/09/02 02:50:00;;;;;;;12.93;8.57;;;;;;;;;;6247722;28;20049;-57
2023/09/02 02:53:00;;;;;;;11.65;8.00;;;;;;;;;;6247177;28;20038;-56
2023/09/02 02:56:02;;;;;;;11.32;8.50;;;;;;;;;;6251465;28;20076;-59
2023/09/02 02:59:03;;;;;;;;;;;;;;;;;;6248582;28;20535;-57
2023/09/02 03:02:03;;;;;;;12.90;8.52;;;;;;;;;;6245103;28;19932;-58
2023/09/02 03:05:04;;;;;;;13.80;8.83;;;;;;;;;;6247221;28;20599;-57
2023/09/02 03:08:05;;;;;;;15.43;9.17;;;;;;;;;;6249019;28;20111;-58
2023/09/02 03:11:06;;;;;;;13.95;8.57;;;;;;;;;;6246874;28;20959;-58
2023/09/02 03:14:07;;;;;;;12.67;8.50;;;;;;;;;;6246409;28;20034;-58
2023/09/02 03:17:07;;;;;;;13.02;8.70;;;;;;;;;;6248894;28;20095;-58
2023/09/02 03:20:08;;;;;;;15.75;8.93;;;;;;;;;;6246739;28;20408;-59
2023/09/02 03:23:09;;;;;;;13.02;9.10;;;;;;;;;;6249012;28;20140;-58
2023/09/02 03:26:11;;;;;;;13.63;9.27;;;;;;;;;;6247890;28;20059;-58
2023/09/02 03:29:12;;;;;;;;;;;;;;;;;;6249806;28;20523;-58
2023/09/02 03:32:12;;;;;;;14.02;8.50;;;;;;;;;;6245848;28;19924;-58
2023/09/02 03:35:13;;;;;;;14.05;9.02;;;;;;;;;;6247853;28;20044;-56
2023/09/02 03:38:13;;;;;;;15.10;9.80;;;;;;;;;;6248328;28;20041;-59
2023/09/02 03:41:17;;;;;;;13.57;9.02;;;;;;;;;;6242786;28;20096;-57
2023/09/02 03:44:19;;;;;;;14.48;10.00;;;;;;;;;;6244177;28;20065;-58
2023/09/02 03:47:19;;;;;;;;;;;;;;;;;;6245553;28;20045;-58
2023/09/02 03:50:24;;;;;;;15.50;9.93;;;;;;;;;;6243549;28;20372;-57
2023/09/02 03:53:24;;;;;;;16.38;9.55;;;;;;;;;;6243814;28;20145;-57
2023/09/02 03:56:25;;;;;;;17.15;10.73;;;;;;;;;;6247688;28;20074;-58
2023/09/02 03:59:26;;;;;;;20.60;11.25;;;;;;;;;;6246982;28;20592;-58
2023/09/02 04:02:26;;;;;;;20.00;11.70;;;;;;;;;;6244947;28;20041;-57
2023/09/02 04:05:27;;;;;;;20.73;11.30;;;;;;;;;;6246152;28;20081;-57
2023/09/02 04:08:27;;;;;;;17.52;10.95;;;;;;;;;;6248933;28;20411;-58
2023/09/02 04:11:28;;;;;;;18.23;11.03;;;;;;;;;;6250559;28;20053;-58
2023/09/02 04:14:28;;;;;;;16.92;10.77;;;;;;;;;;6251118;28;20049;-58
2023/09/02 04:17:29;;;;;;;17.00;10.65;;;;;;;;;;6250551;28;20041;-58
2023/09/02 04:20:30;;;;;;;18.83;11.70;;;;;;;;;;6251886;28;20056;-55
2023/09/02 04:23:31;;;;;;;18.57;12.50;;;;;;;;;;6246677;28;20047;-59
2023/09/02 04:26:32;;;;;;;17.52;10.82;;;;;;;;;;6252142;28;20069;-57
2023/09/02 04:29:33;;;;;;;;;;;;;;;;;;6250864;28;20052;-58
2023/09/02 04:32:33;;;;;;;12.27;7.53;;;;;;;;;;6250805;28;19974;-56
2023/09/02 04:35:45;;;;;;;9.65;6.22;;;;;;;;;;6249815;28;20041;-58
2023/09/02 04:38:45;;;;;;;7.35;5.22;;;;;;;;;;6249645;28;20051;-56
2023/09/02 04:41:46;;;;;;;8.55;5.28;;;;;;;;;;6248824;28;20045;-58
2023/09/02 04:44:46;;;;;;;8.50;5.78;;;;;;;;;;6247788;28;20600;-57
2023/09/02 04:47:49;;;;;;;8.82;5.93;;;;;;;;;;6251534;28;20048;-57
2023/09/02 04:50:55;;;;;;;8.07;5.47;;;;;;;;;;6249192;28;20049;-56
2023/09/02 04:53:56;;;;;;;9.77;5.95;;;;;;;;;;6247711;28;20121;-57
2023/09/02 04:56:56;;;;;;;8.23;5.70;;;;;;;;;;6250025;28;20602;-58
2023/09/02 04:59:57;;;;;;;9.80;5.75;;;;;;;;;;6248827;28;20516;-58
2023/09/02 05:02:57;;;;;;;11.25;6.75;;;;;;;;;;6249126;28;20144;-57
2023/09/02 05:05:58;;;;;;;11.95;6.25;;;;;;;;;;6250410;28;20087;-56
2023/09/02 05:08:58;;;;;;;9.85;6.30;;;;;;;;;;6249362;28;20050;-58
2023/09/02 05:11:59;;;;;;;9.98;6.50;;;;;;;;;;6247956;28;20141;-58
2023/09/02 05:15:00;;;;;;;12.40;7.10;;;;;;;;;;6247082;28;20400;-58
2023/09/02 05:18:01;;;;;;;8.90;6.00;;;;;;;;;;6248045;28;20112;-59
2023/09/02 05:21:02;;;;;;;9.63;6.40;;;;;;;;;;6247368;28;20496;-59
2023/09/02 05:24:03;;;;;;;12.23;7.32;;;;;;;;;;6247499;28;20538;-57
2023/09/02 05:27:04;;;;;;;9.20;6.68;;;;;;;;;;6249694;28;20108;-58
2023/09/02 05:30:06;;;;;;;9.73;6.53;;;;;;;;;;6247727;28;20169;-58
2023/09/02 05:33:06;;;;;;;10.23;6.05;;;;;;;;;;6248353;28;20500;-59
2023/09/02 05:36:07;;;;;;;10.60;6.13;;;;;;;;;;6252472;28;20065;-57
2023/09/02 05:39:07;;;;;;;8.95;5.82;;;;;;;;;;6250535;28;20575;-58
2023/09/02 05:42:08;;;;;;;9.93;6.15;;;;;;;;;;6248253;28;20049;-51
2023/09/02 05:45:09;;;;;;;9.38;5.65;;;;;;;;;;6248971;28;20056;-58
2023/09/02 05:48:10;;;;;;;9.02;6.22;;;;;;;;;;6249313;28;20044;-58
2023/09/02 05:51:11;;;;;;;10.07;6.57;;;;;;;;;;6248129;28;20136;-60
2023/09/02 05:54:12;;;;;;;8.57;6.35;;;;;;;;;;6247996;28;20041;-56
2023/09/02 05:57:12;;;;;;;10.90;6.90;;;;;;;;;;6248072;28;20034;-57
2023/09/02 06:00:13;;;;;;;11.38;6.65;;;;;;;;;;6245985;28;20141;-58
2023/09/02 06:03:14;;;;;;;11.57;7.10;;;;;;;;;;6244879;28;20045;-58
2023/09/02 06:06:14;;;;;;;10.75;6.07;;;;;;;;;;6250190;28;20148;-58
2023/09/02 06:09:16;;;;;;;12.52;6.25;;;;;;;;;;6247814;28;20136;-59
2023/09/02 06:12:16;;;;;;;10.05;6.18;;;;;;;;;;6249813;28;20378;-58
2023/09/02 06:15:17;;;;;;;11.48;6.50;;;;;;;;;;6246517;28;20053;-58
2023/09/02 06:18:18;;;;;;;9.63;5.60;;;;;;;;;;6248752;28;20147;-57
2023/09/02 06:21:18;;;;;;;11.27;6.10;;;;;;;;;;6249222;28;20076;-58
2023/09/02 06:24:19;;;;;;;9.73;6.05;;;;;;;;;;6244646;28;20126;-57
2023/09/02 06:27:19;;;;;;;10.45;6.47;;;;;;;;;;6250255;28;20038;-57
2023/09/02 06:30:20;;;;;;;10.40;6.85;;;;;;;;;;6244893;28;20053;-59
2023/09/02 06:33:22;;;;;;;10.40;6.10;;;;;;;;;;6243803;28;20049;-58
2023/09/02 06:36:23;;;;;;;9.02;6.10;;;;;;;;;;6245440;28;20459;-58
2023/09/02 06:39:24;;;;;;;10.45;6.32;;;;;;;;;;6247982;28;20042;-58
2023/09/02 06:42:24;;;;;;;9.00;5.83;;;;;;;;;;6245663;28;20041;-59
2023/09/02 06:45:25;;;;;;;8.33;5.67;;;;;;;;;;6246146;28;20049;-58
2023/09/02 06:48:26;;;;;;;8.77;5.78;;;;;;;;;;6246452;28;20500;-58
2023/09/02 06:51:26;;;;;;;9.23;5.67;;;;;;;;;;6247169;28;20044;-57
2023/09/02 06:54:27;;;;;;;10.93;6.10;;;;;;;;;;6244127;28;20129;-59
2023/09/02 06:57:28;;;;;;;12.30;6.47;;;;;;;;;;6242463;28;20045;-58
2023/09/02 07:00:28;;;;;;;11.67;6.70;;;;;;;;;;6255811;28;20053;-58
2023/09/02 07:03:29;;;;;;;13.13;7.63;;;;;;;;;;6261513;28;20087;-55
2023/09/02 07:06:30;;;;;;;15.88;8.32;;;;;;;;;;6265748;28;20504;-59
2023/09/02 07:09:31;;;;;;;15.20;8.13;;;;;;;;;;6258076;28;20064;-59
2023/09/02 07:12:32;;;;;;;15.57;9.55;;;;;;;;;;6263529;28;20048;-59
2023/09/02 07:15:34;;;;;;;16.02;9.13;;;;;;;;;;6265589;28;20540;-58
2023/09/02 07:18:35;;;;;;;13.07;8.38;;;;;;;;;;6263548;28;20484;-58
2023/09/02 07:21:36;;;;;;;13.70;8.50;;;;;;;;;;6265458;28;20045;-58
2023/09/02 07:24:36;;;;;;;14.97;8.40;;;;;;;;;;6239631;28;20076;-59
2023/09/02 07:27:37;;;;;;;14.13;8.57;;;;;;;;;;6240251;28;20045;-59
2023/09/02 07:30:38;;;;;;;15.50;8.27;;;;;;;;;;6250110;28;20041;-58
2023/09/02 07:33:38;;;;;;;14.90;9.80;;;;;;;;;;6258146;28;20480;-58
2023/09/02 07:36:39;;;;;;;17.10;9.88;;;;;;;;;;6254623;28;20079;-59
2023/09/02 07:39:40;;;;;;;15.98;11.35;;;;;;;;;;6251793;28;20045;-59
2023/09/02 07:42:40;;;;;;;17.75;10.80;;;;;;;;;;6263606;28;20140;-58
2023/09/02 07:45:43;;;;;;;15.47;10.07;;;;;;;;;;6265204;28;20040;-59
2023/09/02 07:48:48;;;;;;;17.95;10.82;;;;;;;;;;6263499;28;20044;-58
2023/09/02 07:51:48;;;;;;;15.93;9.63;;;;;;;;;;6264816;28;20561;-59
2023/09/02 07:54:49;;;;;;;13.93;8.35;;;;;;;;;;6263842;28;20044;-58
2023/09/02 07:57:50;;;;;;;13.38;8.15;;;;;;;;;;6264709;28;20837;-58
2023/09/02 08:00:54;;;;;;;14.07;8.77;;;;;;;;;;6264496;28;20049;-58
2023/09/02 08:03:56;;;;;;;12.57;8.30;;;;;;;;;;6262943;28;20068;-59
2023/09/02 08:06:57;;;;;;;11.90;7.97;;;;;;;;;;6264637;28;20549;-59
2023/09/02 08:09:57;;;;;;;13.97;8.10;;;;;;;;;;6264584;28;20408;-59
2023/09/02 08:12:58;;;;;;;11.43;7.90;;;;;;;;;;6263397;28;20060;-55
2023/09/02 08:16:03;;;;;;;11.80;7.83;;;;;;;;;;6262560;28;20094;-58
2023/09/02 08:19:03;;;;;;;11.07;7.78;;;;;;;;;;6264274;28;20471;-58
2023/09/02 08:22:04;;;;;;;9.17;7.27;;;;;;;;;;6264823;28;20047;-57
2023/09/02 08:25:06;;;;;;;11.03;7.53;;;;;;;;;;6256214;28;20048;-59
2023/09/02 08:28:06;;;;;;;10.77;7.47;;;;;;;;;;6250492;28;20077;-59
2023/09/02 08:31:11;;;;;;;7.63;6.28;;;;;;;;;;6250448;28;20044;-59
2023/09/02 08:34:11;;;;;;;7.15;5.55;;;;;;;;;;6257381;28;20504;-59
2023/09/02 08:37:12;;;;;;;6.60;5.50;;;;;;;;;;6249668;28;20046;-60
2023/09/02 08:40:14;;;;;;;6.77;5.50;;;;;;;;;;6263871;28;20057;-59
2023/09/02 08:43:15;;;;;;;7.38;5.72;;;;;;;;;;6259103;28;21564;-60
2023/09/02 08:46:17;;;;;;;6.73;5.10;;;;;;;;;;6263448;28;20056;-59
2023/09/02 08:49:19;;;;;;;7.35;5.20;;;;;;;;;;6262659;28;20401;-58
2023/09/02 08:52:20;;;;;;;6.95;5.18;;;;;;;;;;6264505;28;20052;-59
2023/09/02 08:55:21;;;;;;;6.43;5.18;;;;;;;;;;6266793;28;20060;-59
2023/09/02 08:58:24;;;;;;;6.50;4.90;;;;;;;;;;6268092;28;20084;-59
2023/09/02 09:01:25;;;;;;;6.55;5.10;;;;;;;;;;6267799;28;20051;-59
2023/09/02 09:04:29;;;;;;;6.20;5.10;;;;;;;;;;6263102;28;20037;-60
2023/09/02 09:07:30;;;;;;;6.10;5.10;;;;;;;;;;6267855;28;20131;-59
2023/09/02 09:10:34;;;;;;;5.68;4.93;;;;;;;;;;6267922;28;20049;-60
2023/09/02 09:13:43;;;;;;;6.07;4.90;;;;;;;;;;6267396;28;20051;-60
2023/09/02 09:16:45;;;;;;;7.72;5.15;;;;;;;;;;6266748;28;20399;-58
2023/09/02 09:19:46;;;;;;;6.50;5.03;;;;;;;;;;6267116;28;20506;-58
2023/09/02 09:22:50;;;;;;;6.60;5.10;;;;;;;;;;6267696;28;20037;-59
2023/09/02 09:25:52;;;;;;;5.68;4.25;;;;;;;;;;6262657;28;20055;-57
2023/09/02 09:28:58;;;;;;;6.13;3.20;;;;;;;;;;6259965;28;20100;-59
2023/09/02 09:32:11;;;;;;;5.88;3.72;;;;;;;;;;6242639;28;20044;-59
2023/09/02 09:35:21;;;;;;;5.45;4.07;;;;;;;;;;6251500;28;20049;-59
2023/09/02 09:38:22;;;;;;;5.22;3.47;;;;;;;;;;6257215;28;20144;-58
2023/09/02 09:41:24;;;;;;;3.90;2.40;;;;;;;;;;6257012;28;20484;-58
2023/09/02 09:44:25;;;;;;;;;;;;;;;;;;6255663;28;20041;-58
2023/09/02 09:47:26;;;;;;;3.60;2.25;;;;;;;;;;6257055;28;19927;-58
2023/09/02 09:50:28;;;;;;;4.65;3.92;;;;;;;;;;6251746;28;20140;-59
2023/09/02 09:53:44;;;;;;;5.10;3.88;;;;;;;;;;6252431;28;20514;-59
2023/09/02 09:56:45;;;;;;;6.13;3.75;;;;;;;;;;6265275;28;20049;-58
2023/09/02 09:59:51;;;;;;;4.90;3.13;;;;;;;;;;6251630;28;20111;-60
2023/09/02 10:02:57;;;;;;;5.32;3.00;;;;;;;;;;6257927;28;20084;-59
2023/09/02 10:05:59;;;;;;;5.43;2.90;;;;;;;;;;6256266;28;20048;-59
2023/09/02 10:09:00;;;;;;;3.92;2.58;;;;;;;;;;6254350;28;20403;-58
2023/09/02 10:12:12;;;;;;;5.45;2.60;;;;;;;;;;6255870;28;20526;-60
2023/09/02 10:15:13;;;;;;;3.38;2.17;;;;;;;;;;6256888;28;20389;-59
2023/09/02 10:18:14;;;;;;;3.60;2.17;;;;;;;;;;6256187;28;20040;-60
2023/09/02 10:21:17;;;;;;;4.15;2.33;;;;;;;;;;6254506;28;20063;-59
2023/09/02 10:24:17;;;;;;;3.97;2.45;;;;;;;;;;6257320;28;20064;-60
2023/09/02 10:27:22;;;;;;;4.27;2.20;;;;;;;;;;6256498;28;20099;-58
2023/09/02 10:30:45;;;;;;;3.13;2.25;;;;;;;;;;6253583;28;20140;-59
2023/09/02 10:33:50;;;;;;;5.43;2.63;;;;;;;;;;6256233;28;20111;-59
2023/09/02 10:36:58;;;;;;;3.80;2.42;;;;;;;;;;6257950;28;20056;-59
2023/09/02 10:40:04;;;;;;;4.03;2.42;;;;;;;;;;6251429;28;20052;-60
2023/09/02 10:43:06;;;;;;;5.35;2.67;;;;;;;;;;6253324;28;20068;-59
2023/09/02 10:46:10;;;;;;;5.95;2.33;;;;;;;;;;6255549;28;20049;-59
2023/09/02 10:49:11;;;;;;;10.10;3.33;;;;;;;;;;6252010;28;20052;-58
2023/09/02 10:52:15;;;;;;;4.03;2.47;;;;;;;;;;6252990;28;21206;-60
2023/09/02 10:55:16;;;;;;;4.35;2.60;;;;;;;;;;6254931;28;20045;-59
2023/09/02 10:58:16;;;;;;;7.57;2.87;;;;;;;;;;6244520;28;20162;-59
2023/09/02 11:01:17;;;;;;;6.93;2.80;;;;;;;;;;6240791;28;20053;-59
2023/09/02 11:04:39;;;;;;;14.57;4.07;;;;;;;;;;6247070;28;20096;-59
2023/09/02 11:07:40;;;;;;;;;;;;;;;;;;6243281;28;20088;-60
2023/09/02 11:10:51;;;;;;;6.13;2.60;;;;;;;;;;6241171;28;20374;-60
2023/09/02 11:14:07;;;;;;;4.93;2.67;;;;;;;;;;6243234;28;20562;-59
2023/09/02 11:17:27;;;;;;;5.13;2.80;;;;;;;;;;6245548;28;20045;-59
2023/09/02 11:20:48;;;;;;;5.22;2.58;;;;;;;;;;6245227;28;20075;-60
2023/09/02 11:23:49;;;;;;;4.00;2.88;;;;;;;;;;6243304;28;20640;-59
2023/09/02 11:26:57;;;;;;;5.40;3.30;;;;;;;;;;6250473;28;20053;-58
2023/09/02 11:30:08;;;;;;;5.65;3.50;;;;;;;;;;6243917;28;20041;-59
2023/09/02 11:33:09;;;;;;;6.23;4.13;;;;;;;;;;6243163;28;20517;-56
2023/09/02 11:36:15;;;;;;;6.43;3.63;;;;;;;;;;6247355;28;20293;-59
2023/09/02 11:39:16;;;;;;;7.13;3.70;;;;;;;;;;6245171;28;20049;-58
2023/09/02 11:42:16;;;;;;;8.20;3.90;;;;;;;;;;6247504;28;20144;-59
2023/09/02 11:45:17;;;;;;;5.80;3.87;;;;;;;;;;6246847;28;20048;-59
2023/09/02 11:48:18;;;;;;;5.15;3.72;;;;;;;;;;6244741;28;20444;-59
2023/09/02 11:51:20;;;;;;;6.33;3.67;;;;;;;;;;6244869;28;20068;-59
2023/09/02 11:54:20;;;;;;;10.32;8.48;;;;;;;;;;6244538;28;20057;-58
2023/09/02 11:57:21;;;;;;;6.47;3.20;;;;;;;;;;6244421;28;20063;-60
2023/09/02 12:00:24;;;;;;;5.90;3.23;;;;;;;;;;6240530;28;20077;-57
2023/09/02 12:03:27;;;;;;;5.00;2.85;;;;;;;;;;6246175;28;20155;-63
2023/09/02 12:06:30;;;;;;;6.80;3.30;;;;;;;;;;6245950;28;20076;-60
2023/09/02 12:09:30;;;;;;;6.53;3.80;;;;;;;;;;6243088;28;20128;-59
2023/09/02 12:12:31;;;;;;;5.20;3.10;;;;;;;;;;6248571;28;20049;-59
2023/09/02 12:15:32;;;;;;;4.07;2.57;;;;;;;;;;6244169;28;20053;-59
2023/09/02 12:18:33;;;;;;;5.93;3.45;;;;;;;;;;6243747;28;20049;-60
2023/09/02 12:21:36;;;;;;;4.53;3.07;;;;;;;;;;6246985;28;20045;-58
2023/09/02 12:24:37;;;;;;;4.63;3.00;;;;;;;;;;6244533;28;20399;-59
2023/09/02 12:27:37;;;;;;;5.23;3.07;;;;;;;;;;6246899;28;20056;-59
2023/09/02 12:30:39;;;;;;;5.80;3.30;;;;;;;;;;6251121;28;20060;-59
2023/09/02 12:33:40;;;;;;;4.78;2.97;;;;;;;;;;6254618;28;20064;-60
2023/09/02 12:36:40;;;;;;;4.50;3.07;;;;;;;;;;6256611;28;20053;-61
2023/09/02 12:39:41;;;;;;;4.63;3.17;;;;;;;;;;6255794;28;20052;-59
2023/09/02 12:42:53;;;;;;;5.27;3.77;;;;;;;;;;6259729;28;20126;-60
2023/09/02 12:45:54;;;;;;;;;;;;;;;;;;6260185;28;20056;-60
2023/09/02 12:48:55;;;;;;;6.53;3.67;;;;;;;;;;6256045;28;19929;-59
2023/09/02 12:51:56;;;;;;;5.07;3.30;;;;;;;;;;6257132;28;20419;-59
2023/09/02 12:54:59;;;;;;;8.23;3.60;;;;;;;;;;6259891;28;20044;-59
2023/09/02 12:58:02;;;;;;;5.10;3.00;;;;;;;;;;6258999;28;20448;-59
2023/09/02 13:01:04;;;;;;;6.15;2.70;;;;;;;;;;6256398;28;20045;-59
2023/09/02 13:04:05;;;;;;;5.32;3.38;;;;;;;;;;6259968;28;20731;-59
2023/09/02 13:07:06;;;;;;;5.27;2.87;;;;;;;;;;6259302;28;20063;-60
2023/09/02 13:10:09;;;;;;;7.37;3.23;;;;;;;;;;6253985;28;20159;-60
2023/09/02 13:13:10;;;;;;;7.05;3.00;;;;;;;;;;6258636;28;20535;-60
2023/09/02 13:16:10;;;;;;;4.07;2.60;;;;;;;;;;6258033;28;20099;-60
2023/09/02 13:19:12;;;;;;;4.60;2.83;;;;;;;;;;6254987;28;20138;-58
2023/09/02 13:22:13;;;;;;;5.63;3.08;;;;;;;;;;6257463;28;20149;-60
2023/09/02 13:25:16;;;;;;;4.30;2.72;;;;;;;;;;6257656;28;20048;-60
2023/09/02 13:28:17;;;;;;;4.97;2.80;;;;;;;;;;6257043;28;20499;-60
2023/09/02 13:31:19;;;;;;;4.87;2.73;;;;;;;;;;6258208;28;20048;-59
2023/09/02 13:34:33;;;;;;;3.30;2.40;;;;;;;;;;6253544;28;20069;-60
2023/09/02 13:37:33;;;;;;;8.27;3.40;;;;;;;;;;6248811;28;20384;-59
2023/09/02 13:40:36;;;;;;;4.97;2.87;;;;;;;;;;6254095;28;20049;-60
2023/09/02 13:43:37;;;;;;;5.82;2.83;;;;;;;;;;6245158;28;20455;-59
2023/09/02 13:46:37;;;;;;;6.17;2.53;;;;;;;;;;6245077;28;20034;-59
2023/09/02 13:49:40;;;;;;;3.87;2.33;;;;;;;;;;6246349;28;20090;-60
2023/09/02 13:52:43;;;;;;;4.55;2.60;;;;;;;;;;6245125;28;20049;-59
2023/09/02 13:55:45;;;;;;;4.43;2.40;;;;;;;;;;6248390;28;20053;-60
2023/09/02 13:58:50;;;;;;;3.83;2.47;;;;;;;;;;6247155;28;20477;-59
2023/09/02 14:01:52;;;;;;;4.00;2.63;;;;;;;;;;6245282;28;20051;-59
2023/09/02 14:04:52;;;;;;;3.83;2.65;;;;;;;;;;6248341;28;20057;-60
2023/09/02 14:07:59;;;;;;;4.80;2.60;;;;;;;;;;6248980;28;20127;-60
2023/09/02 14:11:00;;;;;;;4.13;2.78;;;;;;;;;;6247685;28;20060;-58
2023/09/02 14:14:00;;;;;;;4.35;2.67;;;;;;;;;;6247688;28;20428;-59
2023/09/02 14:17:01;;;;;;;4.93;2.80;;;;;;;;;;6248268;28;20060;-60
2023/09/02 14:20:02;;;;;;;4.30;2.23;;;;;;;;;;6243863;28;20072;-60
2023/09/02 14:23:03;;;;;;;5.55;2.78;;;;;;;;;;6247354;28;20102;-60
2023/09/02 14:26:03;;;;;;;6.10;3.20;;;;;;;;;;6246572;28;20045;-59
2023/09/02 14:29:04;;;;;;;7.07;3.50;;;;;;;;;;6245260;28;21759;-60
2023/09/02 14:32:05;;;;;;;6.27;3.10;;;;;;;;;;6246980;28;20084;-60
2023/09/02 14:35:06;;;;;;;5.65;3.15;;;;;;;;;;6250751;28;20033;-60
2023/09/02 14:38:07;;;;;;;4.95;3.03;;;;;;;;;;6245026;28;20418;-60
2023/09/02 14:41:08;;;;;;;5.23;2.90;;;;;;;;;;6245538;28;20045;-59
2023/09/02 14:44:09;;;;;;;7.05;3.50;;;;;;;;;;6247329;28;20045;-60
2023/09/02 14:47:11;;;;;;;5.43;3.20;;;;;;;;;;6248585;28;20040;-59
2023/09/02 14:50:11;;;;;;;5.93;2.90;;;;;;;;;;6246827;28;20045;-59
2023/09/02 14:53:13;;;;;;;4.97;3.00;;;;;;;;;;6245907;28;20052;-59
2023/09/02 14:56:14;;;;;;;4.70;2.95;;;;;;;;;;6246420;28;20275;-59
2023/09/02 14:59:21;;;;;;;5.28;2.63;;;;;;;;;;6249295;28;20064;-60
2023/09/02 15:02:38;;;;;;;4.00;2.70;;;;;;;;;;6241541;28;20044;-60
2023/09/02 15:05:39;;;;;;;4.75;2.88;;;;;;;;;;6245423;28;20091;-60
2023/09/02 15:08:40;;;;;;;4.80;2.77;;;;;;;;;;6246144;28;20046;-59
2023/09/02 15:11:40;;;;;;;4.20;2.70;;;;;;;;;;6245451;28;20049;-60
2023/09/02 15:14:52;;;;;;;6.20;2.83;;;;;;;;;;6245505;28;20041;-60
2023/09/02 15:17:52;;;;;;;5.05;3.03;;;;;;;;;;6246690;28;20044;-59
2023/09/02 15:20:54;;;;;;;6.03;3.40;;;;;;;;;;6245417;28;20068;-60
2023/09/02 15:23:54;;;;;;;5.32;3.33;;;;;;;;;;6245315;28;20056;-60
2023/09/02 15:26:55;;;;;;;5.33;3.03;;;;;;;;;;6246176;28;20047;-61
2023/09/02 15:29:56;;;;;;;4.70;3.10;;;;;;;;;;6245435;28;20052;-59
2023/09/02 15:32:59;;;;;;;4.60;2.90;;;;;;;;;;6244282;28;20044;-59
2023/09/02 15:36:02;;;;;;;5.43;3.00;;;;;;;;;;6248047;28;20039;-59
2023/09/02 15:39:07;;;;;;;4.07;2.70;;;;;;;;;;6246730;28;20122;-59
2023/09/02 15:42:08;;;;;;;4.45;2.80;;;;;;;;;;6246419;28;20044;-59
2023/09/02 15:45:09;;;;;;;6.70;4.63;;;;;;;;;;6244019;28;20528;-59
2023/09/02 15:48:09;;;;;;;5.55;2.97;;;;;;;;;;6245200;28;20045;-60
2023/09/02 15:51:10;;;;;;;4.30;2.80;;;;;;;;;;6247623;28;20048;-60
2023/09/02 15:54:10;;;;;;;4.13;2.83;;;;;;;;;;6247021;28;20053;-59
2023/09/02 15:57:13;;;;;;;5.93;3.13;;;;;;;;;;6249482;28;20472;-59
2023/09/02 16:00:13;;;;;;;5.72;3.13;;;;;;;;;;6246959;28;20110;-59
2023/09/02 16:03:14;;;;;;;5.88;4.53;;;;;;;;;;6242001;28;20132;-59
2023/09/02 16:06:15;;;;;;;4.70;3.23;;;;;;;;;;6247263;28;20051;-60
2023/09/02 16:09:15;;;;;;;5.73;3.30;;;;;;;;;;6243940;28;20140;-60
2023/09/02 16:12:16;;;;;;;5.00;2.97;;;;;;;;;;6243810;28;20049;-60
2023/09/02 16:15:17;;;;;;;4.23;2.83;;;;;;;;;;6244312;28;20089;-59
2023/09/02 16:18:17;;;;;;;6.23;3.20;;;;;;;;;;6243787;28;20041;-59
2023/09/02 16:21:18;;;;;;;5.67;4.47;;;;;;;;;;6243648;28;20422;-59
2023/09/02 16:24:18;;;;;;;5.77;3.37;;;;;;;;;;6241458;28;20052;-59
2023/09/02 16:27:19;;;;;;;4.57;3.20;;;;;;;;;;6248431;28;20036;-60
2023/09/02 16:30:19;;;;;;;6.10;3.40;;;;;;;;;;6246385;28;20099;-60
2023/09/02 16:33:20;;;;;;;5.03;3.23;;;;;;;;;;6247391;28;20041;-60
2023/09/02 16:36:20;;;;;;;5.03;3.23;;;;;;;;;;6245790;28;20036;-60
2023/09/02 16:39:21;;;;;;;5.33;3.30;;;;;;;;;;6251730;28;20415;-59
2023/09/02 16:42:26;;;;;;;7.67;4.67;;;;;;;;;;6254256;28;20049;-60
2023/09/02 16:45:27;;;;;;;5.07;3.55;;;;;;;;;;6251335;28;20069;-58
2023/09/02 16:48:27;;;;;;;68.40;27.73;;;;;;;;;;6254609;28;20042;-59
2023/09/02 16:51:29;;;;;;;18.27;10.03;;;;;;;;;;6254928;28;20142;-60
2023/09/02 16:54:31;;;;;;;8.00;4.83;;;;;;;;;;6250488;28;20049;-60
2023/09/02 16:57:38;;;;;;;10.98;6.43;;;;;;;;;;6253970;28;20506;-60
2023/09/02 17:00:39;;;;;;;8.50;4.78;;;;;;;;;;6254055;28;20083;-60
2023/09/02 17:03:40;;;;;;;7.90;5.90;;;;;;;;;;6251833;28;20468;-60
2023/09/02 17:06:40;;;;;;;12.27;7.00;;;;;;;;;;6252056;28;20485;-59
2023/09/02 17:09:41;;;;;;;8.47;5.80;;;;;;;;;;6253349;28;20517;-60
2023/09/02 17:12:43;;;;;;;8.93;6.80;;;;;;;;;;6254266;28;20099;-60
2023/09/02 17:15:43;;;;;;;9.68;5.80;;;;;;;;;;6255466;28;20051;-58
2023/09/02 17:18:44;;;;;;;8.53;5.70;;;;;;;;;;6258484;28;20045;-59
2023/09/02 17:21:49;;;;;;;8.83;5.33;;;;;;;;;;6258621;28;20076;-61
2023/09/02 17:24:50;;;;;;;7.97;4.95;;;;;;;;;;6254959;28;20557;-60
2023/09/02 17:27:55;;;;;;;9.07;5.20;;;;;;;;;;6259159;28;20049;-58
2023/09/02 17:30:57;;;;;;;8.65;5.90;;;;;;;;;;6257010;28;20098;-58
2023/09/02 17:33:58;;;;;;;10.13;5.57;;;;;;;;;;6256649;28;20045;-60
2023/09/02 17:36:58;;;;;;;9.00;4.93;;;;;;;;;;6253965;28;20041;-53
2023/09/02 17:39:59;;;;;;;8.70;5.13;;;;;;;;;;6258446;28;20080;-60
2023/09/02 17:42:59;;;;;;;8.03;4.53;;;;;;;;;;6257505;28;20056;-59
2023/09/02 17:46:00;;;;;;;6.00;4.00;;;;;;;;;;6255301;28;20072;-53
2023/09/02 17:49:01;;;;;;;6.97;4.13;;;;;;;;;;6257719;28;20044;-59
2023/09/02 17:52:02;;;;;;;12.90;4.63;;;;;;;;;;6257874;28;20057;-57
2023/09/02 17:55:03;;;;;;;10.23;6.57;;;;;;;;;;6254806;28;20492;-55
2023/09/02 17:58:05;;;;;;;;;;;;;;;;;;6258146;28;20088;-59
2023/09/02 18:01:05;;;;;;;10.20;6.63;;;;;;;;;;6258639;28;19963;-59
2023/09/02 18:04:06;;;;;;;11.20;6.60;;;;;;;;;;6252359;28;20116;-57
2023/09/02 18:07:06;;;;;;;16.80;10.67;;;;;;;;;;6252412;28;20048;-59